sensor_id;sensor_type;location;lat;lon;timestamp;pressure;altitude;pressure_sealevel;temperature;humidity
81274;BME280;70753;47.908;11.274;2024-01-16T00:01:41;94072.00;;;-0.73;54.68
81274;BME280;70753;47.908;11.274;2024-01-16T00:04:08;94078.16;;;-0.80;54.83
81274;BME280;70753;47.908;11.274;2024-01-16T00:06:34;94078.16;;;-0.91;54.73
81274;BME280;70753;47.908;11.274;2024-01-16T00:09:04;94085.22;;;-0.92;55.42
81274;BME280;70753;47.908;11.274;2024-01-16T00:11:30;94084.97;;;-0.90;55.75
81274;BME280;70753;47.908;11.274;2024-01-16T00:13:56;94081.09;;;-0.88;55.43
81274;BME280;70753;47.908;11.274;2024-01-16T00:16:22;94079.28;;;-0.99;55.10
81274;BME280;70753;47.908;11.274;2024-01-16T00:18:47;94078.72;;;-1.01;55.39
81274;BME280;70753;47.908;11.274;2024-01-16T00:21:12;94098.88;;;-1.01;55.32
81274;BME280;70753;47.908;11.274;2024-01-16T00:23:38;94085.81;;;-1.01;55.00
81274;BME280;70753;47.908;11.274;2024-01-16T00:26:05;94094.19;;;-1.11;55.40
81274;BME280;70753;47.908;11.274;2024-01-16T00:28:31;94097.63;;;-1.33;56.51
81274;BME280;70753;47.908;11.274;2024-01-16T00:30:56;94099.50;;;-1.52;57.21
81274;BME280;70753;47.908;11.274;2024-01-16T00:33:21;94106.13;;;-1.38;56.59
81274;BME280;70753;47.908;11.274;2024-01-16T00:35:47;94108.97;;;-1.51;56.97
81274;BME280;70753;47.908;11.274;2024-01-16T00:38:12;94111.78;;;-1.64;57.47
81274;BME280;70753;47.908;11.274;2024-01-16T00:40:38;94119.63;;;-1.41;57.17
81274;BME280;70753;47.908;11.274;2024-01-16T00:43:05;94124.19;;;-1.36;56.87
81274;BME280;70753;47.908;11.274;2024-01-16T00:45:30;94128.84;;;-1.38;56.85
81274;BME280;70753;47.908;11.274;2024-01-16T00:47:55;94132.94;;;-1.31;56.48
81274;BME280;70753;47.908;11.274;2024-01-16T00:50:21;94135.34;;;-1.18;56.35
81274;BME280;70753;47.908;11.274;2024-01-16T00:52:46;94139.22;;;-1.09;55.44
81274;BME280;70753;47.908;11.274;2024-01-16T00:55:12;94141.25;;;-1.11;55.88
81274;BME280;70753;47.908;11.274;2024-01-16T00:57:37;94145.59;;;-1.16;56.26
81274;BME280;70753;47.908;11.274;2024-01-16T01:00:05;94143.06;;;-1.11;55.77
81274;BME280;70753;47.908;11.274;2024-01-16T01:02:31;94146.13;;;-1.26;55.72
81274;BME280;70753;47.908;11.274;2024-01-16T01:04:58;94142.97;;;-1.28;56.56
81274;BME280;70753;47.908;11.274;2024-01-16T01:07:23;94143.06;;;-1.34;56.49
81274;BME280;70753;47.908;11.274;2024-01-16T01:09:48;94141.81;;;-1.32;56.08
81274;BME280;70753;47.908;11.274;2024-01-16T01:12:14;94150.53;;;-1.61;56.95
81274;BME280;70753;47.908;11.274;2024-01-16T01:14:39;94151.47;;;-1.44;57.12
81274;BME280;70753;47.908;11.274;2024-01-16T01:17:06;94150.19;;;-1.53;57.77
81274;BME280;70753;47.908;11.274;2024-01-16T01:19:31;94163.31;;;-1.71;57.29
81274;BME280;70753;47.908;11.274;2024-01-16T01:21:57;94167.53;;;-1.29;56.28
81274;BME280;70753;47.908;11.274;2024-01-16T01:24:22;94165.09;;;-1.30;57.18
81274;BME280;70753;47.908;11.274;2024-01-16T01:26:48;94174.59;;;-0.95;55.94
81274;BME280;70753;47.908;11.274;2024-01-16T01:29:13;94165.00;;;-1.24;56.12
81274;BME280;70753;47.908;11.274;2024-01-16T01:31:38;94158.53;;;-1.21;56.04
81274;BME280;70753;47.908;11.274;2024-01-16T01:34:05;94168.56;;;-1.18;55.99
81274;BME280;70753;47.908;11.274;2024-01-16T01:36:31;94175.59;;;-1.60;57.00
81274;BME280;70753;47.908;11.274;2024-01-16T01:38:56;94177.63;;;-1.21;56.33
81274;BME280;70753;47.908;11.274;2024-01-16T01:41:21;94167.75;;;-1.19;55.75
81274;BME280;70753;47.908;11.274;2024-01-16T01:43:47;94181.47;;;-1.35;56.54
81274;BME280;70753;47.908;11.274;2024-01-16T01:46:14;94183.63;;;-1.32;56.10
81274;BME280;70753;47.908;11.274;2024-01-16T01:48:41;94187.56;;;-1.52;57.01
81274;BME280;70753;47.908;11.274;2024-01-16T01:51:08;94190.13;;;-1.64;56.64
81274;BME280;70753;47.908;11.274;2024-01-16T01:53:34;94188.09;;;-1.62;56.49
81274;BME280;70753;47.908;11.274;2024-01-16T01:56:04;94192.91;;;-1.47;56.41
81274;BME280;70753;47.908;11.274;2024-01-16T01:58:29;94199.06;;;-1.42;55.97
81274;BME280;70753;47.908;11.274;2024-01-16T02:00:55;94191.28;;;-1.60;57.30
81274;BME280;70753;47.908;11.274;2024-01-16T02:03:22;94201.56;;;-2.06;57.27
81274;BME280;70753;47.908;11.274;2024-01-16T02:05:49;94204.13;;;-1.88;57.58
81274;BME280;70753;47.908;11.274;2024-01-16T02:08:16;94196.94;;;-1.63;56.99
81274;BME280;70753;47.908;11.274;2024-01-16T02:10:42;94203.84;;;-1.98;58.42
81274;BME280;70753;47.908;11.274;2024-01-16T02:13:10;94203.03;;;-1.81;57.62
81274;BME280;70753;47.908;11.274;2024-01-16T02:15:35;94204.47;;;-2.33;58.82
81274;BME280;70753;47.908;11.274;2024-01-16T02:18:01;94206.66;;;-1.82;58.22
81274;BME280;70753;47.908;11.274;2024-01-16T02:20:26;94204.19;;;-1.65;56.71
81274;BME280;70753;47.908;11.274;2024-01-16T02:22:54;94206.38;;;-2.10;57.97
81274;BME280;70753;47.908;11.274;2024-01-16T02:25:22;94216.00;;;-1.74;57.34
81274;BME280;70753;47.908;11.274;2024-01-16T02:27:48;94206.22;;;-1.37;55.97
81274;BME280;70753;47.908;11.274;2024-01-16T02:30:13;94223.88;;;-1.63;56.21
81274;BME280;70753;47.908;11.274;2024-01-16T02:32:38;94214.84;;;-1.48;55.65
81274;BME280;70753;47.908;11.274;2024-01-16T02:35:04;94216.09;;;-1.39;55.92
81274;BME280;70753;47.908;11.274;2024-01-16T02:37:30;94221.09;;;-1.97;57.51
81274;BME280;70753;47.908;11.274;2024-01-16T02:39:55;94224.00;;;-1.87;56.89
81274;BME280;70753;47.908;11.274;2024-01-16T02:42:22;94222.81;;;-1.73;56.51
81274;BME280;70753;47.908;11.274;2024-01-16T02:44:47;94223.38;;;-1.71;56.50
81274;BME280;70753;47.908;11.274;2024-01-16T02:47:13;94216.31;;;-2.18;58.70
81274;BME280;70753;47.908;11.274;2024-01-16T02:49:38;94214.13;;;-1.85;57.38
81274;BME280;70753;47.908;11.274;2024-01-16T02:52:04;94209.56;;;-1.90;57.46
81274;BME280;70753;47.908;11.274;2024-01-16T02:54:30;94215.38;;;-1.88;57.47
81274;BME280;70753;47.908;11.274;2024-01-16T02:56:56;94213.81;;;-1.77;56.95
81274;BME280;70753;47.908;11.274;2024-01-16T02:59:22;94205.22;;;-1.96;57.03
81274;BME280;70753;47.908;11.274;2024-01-16T03:01:48;94217.94;;;-2.36;58.41
81274;BME280;70753;47.908;11.274;2024-01-16T03:04:13;94223.84;;;-2.10;58.32
81274;BME280;70753;47.908;11.274;2024-01-16T03:06:39;94222.28;;;-1.93;57.53
81274;BME280;70753;47.908;11.274;2024-01-16T03:09:04;94215.63;;;-2.44;58.91
81274;BME280;70753;47.908;11.274;2024-01-16T03:11:29;94221.84;;;-2.26;58.06
81274;BME280;70753;47.908;11.274;2024-01-16T03:13:55;94227.16;;;-2.76;59.56
81274;BME280;70753;47.908;11.274;2024-01-16T03:16:21;94220.91;;;-2.93;60.83
81274;BME280;70753;47.908;11.274;2024-01-16T03:18:47;94217.19;;;-2.43;59.34
81274;BME280;70753;47.908;11.274;2024-01-16T03:21:13;94221.91;;;-2.94;61.31
81274;BME280;70753;47.908;11.274;2024-01-16T03:23:38;94228.81;;;-2.39;59.34
81274;BME280;70753;47.908;11.274;2024-01-16T03:26:04;94223.00;;;-2.22;58.65
81274;BME280;70753;47.908;11.274;2024-01-16T03:28:29;94228.16;;;-2.16;58.51
81274;BME280;70753;47.908;11.274;2024-01-16T03:30:54;94231.25;;;-2.07;58.62
81274;BME280;70753;47.908;11.274;2024-01-16T03:33:21;94232.13;;;-2.13;58.10
81274;BME280;70753;47.908;11.274;2024-01-16T03:35:47;94238.78;;;-1.99;58.42
81274;BME280;70753;47.908;11.274;2024-01-16T03:38:12;94236.75;;;-1.97;58.21
81274;BME280;70753;47.908;11.274;2024-01-16T03:40:39;94233.88;;;-1.89;58.64
81274;BME280;70753;47.908;11.274;2024-01-16T03:43:05;94234.44;;;-2.05;58.83
81274;BME280;70753;47.908;11.274;2024-01-16T03:45:31;94223.44;;;-2.07;58.64
81274;BME280;70753;47.908;11.274;2024-01-16T03:47:58;94227.38;;;-1.87;58.17
81274;BME280;70753;47.908;11.274;2024-01-16T03:50:25;94233.72;;;-1.94;57.97
81274;BME280;70753;47.908;11.274;2024-01-16T03:52:50;94230.22;;;-1.88;57.83
81274;BME280;70753;47.908;11.274;2024-01-16T03:55:15;94229.50;;;-1.95;58.18
81274;BME280;70753;47.908;11.274;2024-01-16T03:57:41;94219.50;;;-2.16;58.46
81274;BME280;70753;47.908;11.274;2024-01-16T04:00:07;94219.81;;;-2.61;59.83
81274;BME280;70753;47.908;11.274;2024-01-16T04:02:33;94213.38;;;-2.58;59.95
81274;BME280;70753;47.908;11.274;2024-01-16T04:04:58;94217.06;;;-2.48;60.37
81274;BME280;70753;47.908;11.274;2024-01-16T04:07:25;94221.13;;;-2.34;59.81
81274;BME280;70753;47.908;11.274;2024-01-16T04:09:50;94211.00;;;-2.23;58.99
81274;BME280;70753;47.908;11.274;2024-01-16T04:12:15;94210.25;;;-2.30;59.35
81274;BME280;70753;47.908;11.274;2024-01-16T04:14:41;94212.28;;;-2.33;59.05
81274;BME280;70753;47.908;11.274;2024-01-16T04:17:06;94203.94;;;-2.41;58.72
81274;BME280;70753;47.908;11.274;2024-01-16T04:19:31;94201.75;;;-2.44;59.23
81274;BME280;70753;47.908;11.274;2024-01-16T04:21:57;94194.75;;;-2.44;59.50
81274;BME280;70753;47.908;11.274;2024-01-16T04:24:24;94203.72;;;-2.40;59.18
81274;BME280;70753;47.908;11.274;2024-01-16T04:26:49;94197.19;;;-2.49;59.45
81274;BME280;70753;47.908;11.274;2024-01-16T04:29:15;94207.75;;;-2.62;59.13
81274;BME280;70753;47.908;11.274;2024-01-16T04:31:41;94206.00;;;-2.86;59.52
81274;BME280;70753;47.908;11.274;2024-01-16T04:34:07;94209.31;;;-2.97;59.85
81274;BME280;70753;47.908;11.274;2024-01-16T04:36:32;94204.09;;;-2.97;60.48
81274;BME280;70753;47.908;11.274;2024-01-16T04:38:59;94203.53;;;-2.81;60.41
81274;BME280;70753;47.908;11.274;2024-01-16T04:41:26;94203.84;;;-2.71;60.20
81274;BME280;70753;47.908;11.274;2024-01-16T04:43:52;94197.78;;;-2.65;60.02
81274;BME280;70753;47.908;11.274;2024-01-16T04:46:18;94202.19;;;-2.65;60.09
81274;BME280;70753;47.908;11.274;2024-01-16T04:48:43;94192.63;;;-2.71;59.89
81274;BME280;70753;47.908;11.274;2024-01-16T04:51:08;94193.44;;;-2.71;59.75
81274;BME280;70753;47.908;11.274;2024-01-16T04:53:34;94183.72;;;-2.82;60.60
81274;BME280;70753;47.908;11.274;2024-01-16T04:56:00;94192.97;;;-2.68;60.16
81274;BME280;70753;47.908;11.274;2024-01-16T04:58:26;94187.56;;;-2.48;59.44
81274;BME280;70753;47.908;11.274;2024-01-16T05:00:52;94181.25;;;-2.59;58.60
81274;BME280;70753;47.908;11.274;2024-01-16T05:03:17;94197.09;;;-2.78;59.20
81274;BME280;70753;47.908;11.274;2024-01-16T05:05:43;94195.94;;;-2.82;59.23
81274;BME280;70753;47.908;11.274;2024-01-16T05:08:08;94196.16;;;-2.84;59.46
81274;BME280;70753;47.908;11.274;2024-01-16T05:10:34;94190.09;;;-3.02;60.49
81274;BME280;70753;47.908;11.274;2024-01-16T05:12:59;94194.63;;;-3.16;61.02
81274;BME280;70753;47.908;11.274;2024-01-16T05:15:26;94190.31;;;-2.79;60.26
81274;BME280;70753;47.908;11.274;2024-01-16T05:17:51;94187.75;;;-2.86;60.41
81274;BME280;70753;47.908;11.274;2024-01-16T05:20:17;94186.53;;;-2.65;60.08
81274;BME280;70753;47.908;11.274;2024-01-16T05:22:43;94181.97;;;-2.70;59.63
81274;BME280;70753;47.908;11.274;2024-01-16T05:25:08;94181.69;;;-2.44;58.86
81274;BME280;70753;47.908;11.274;2024-01-16T05:27:34;94175.59;;;-2.38;58.81
81274;BME280;70753;47.908;11.274;2024-01-16T05:30:00;94180.97;;;-2.51;58.88
81274;BME280;70753;47.908;11.274;2024-01-16T05:32:26;94181.25;;;-2.59;58.80
81274;BME280;70753;47.908;11.274;2024-01-16T05:34:52;94189.28;;;-2.78;59.36
81274;BME280;70753;47.908;11.274;2024-01-16T05:37:17;94193.56;;;-2.84;59.94
81274;BME280;70753;47.908;11.274;2024-01-16T05:39:43;94185.28;;;-2.99;60.46
81274;BME280;70753;47.908;11.274;2024-01-16T05:42:08;94194.00;;;-3.12;61.84
81274;BME280;70753;47.908;11.274;2024-01-16T05:44:34;94194.25;;;-3.44;62.95
81274;BME280;70753;47.908;11.274;2024-01-16T05:46:59;94198.59;;;-4.45;65.90
81274;BME280;70753;47.908;11.274;2024-01-16T05:49:26;94198.63;;;-4.51;66.82
81274;BME280;70753;47.908;11.274;2024-01-16T05:51:51;94196.09;;;-4.27;65.75
81274;BME280;70753;47.908;11.274;2024-01-16T05:54:17;94190.44;;;-3.73;63.48
81274;BME280;70753;47.908;11.274;2024-01-16T05:56:43;94193.75;;;-3.59;63.20
81274;BME280;70753;47.908;11.274;2024-01-16T05:59:09;94191.41;;;-3.67;63.73
81274;BME280;70753;47.908;11.274;2024-01-16T06:01:34;94183.34;;;-3.59;62.64
81274;BME280;70753;47.908;11.274;2024-01-16T06:03:59;94186.81;;;-3.41;62.58
81274;BME280;70753;47.908;11.274;2024-01-16T06:06:26;94182.75;;;-3.37;62.52
81274;BME280;70753;47.908;11.274;2024-01-16T06:08:52;94180.78;;;-3.41;62.05
81274;BME280;70753;47.908;11.274;2024-01-16T06:11:17;94185.50;;;-3.56;62.35
81274;BME280;70753;47.908;11.274;2024-01-16T06:13:42;94187.66;;;-3.47;62.30
81274;BME280;70753;47.908;11.274;2024-01-16T06:16:08;94187.59;;;-3.40;61.86
81274;BME280;70753;47.908;11.274;2024-01-16T06:18:33;94186.84;;;-3.47;62.22
81274;BME280;70753;47.908;11.274;2024-01-16T06:20:59;94188.53;;;-3.59;62.61
81274;BME280;70753;47.908;11.274;2024-01-16T06:23:25;94180.47;;;-3.51;62.01
81274;BME280;70753;47.908;11.274;2024-01-16T06:25:51;94186.00;;;-3.41;61.84
81274;BME280;70753;47.908;11.274;2024-01-16T06:28:16;94185.94;;;-3.35;61.80
81274;BME280;70753;47.908;11.274;2024-01-16T06:30:42;94175.47;;;-3.28;61.61
81274;BME280;70753;47.908;11.274;2024-01-16T06:33:08;94178.25;;;-3.23;61.50
81274;BME280;70753;47.908;11.274;2024-01-16T06:35:33;94180.16;;;-3.12;62.11
81274;BME280;70753;47.908;11.274;2024-01-16T06:37:59;94179.41;;;-2.94;61.12
81274;BME280;70753;47.908;11.274;2024-01-16T06:40:25;94170.22;;;-2.97;60.65
81274;BME280;70753;47.908;11.274;2024-01-16T06:42:51;94173.97;;;-2.93;61.32
81274;BME280;70753;47.908;11.274;2024-01-16T06:45:16;94162.03;;;-2.82;60.77
81274;BME280;70753;47.908;11.274;2024-01-16T06:47:41;94162.97;;;-2.77;60.67
81274;BME280;70753;47.908;11.274;2024-01-16T06:50:07;94163.66;;;-2.63;60.44
81274;BME280;70753;47.908;11.274;2024-01-16T06:52:33;94160.81;;;-2.62;59.33
81274;BME280;70753;47.908;11.274;2024-01-16T06:54:58;94167.47;;;-2.66;59.40
81274;BME280;70753;47.908;11.274;2024-01-16T06:57:25;94171.81;;;-2.60;59.88
81274;BME280;70753;47.908;11.274;2024-01-16T06:59:50;94176.31;;;-2.49;59.97
81274;BME280;70753;47.908;11.274;2024-01-16T07:02:16;94172.72;;;-2.48;59.21
81274;BME280;70753;47.908;11.274;2024-01-16T07:04:41;94174.94;;;-2.33;59.22
81274;BME280;70753;47.908;11.274;2024-01-16T07:07:06;94172.75;;;-2.36;59.53
81274;BME280;70753;47.908;11.274;2024-01-16T07:09:32;94171.91;;;-2.48;60.14
81274;BME280;70753;47.908;11.274;2024-01-16T07:11:57;94170.16;;;-2.36;59.87
81274;BME280;70753;47.908;11.274;2024-01-16T07:14:24;94182.84;;;-2.21;59.73
81274;BME280;70753;47.908;11.274;2024-01-16T07:16:49;94177.06;;;-2.23;59.38
81274;BME280;70753;47.908;11.274;2024-01-16T07:19:15;94189.44;;;-2.19;59.69
81274;BME280;70753;47.908;11.274;2024-01-16T07:21:40;94183.78;;;-2.16;59.61
81274;BME280;70753;47.908;11.274;2024-01-16T07:24:05;94181.25;;;-2.04;59.64
81274;BME280;70753;47.908;11.274;2024-01-16T07:26:31;94180.81;;;-2.19;59.88
81274;BME280;70753;47.908;11.274;2024-01-16T07:28:56;94180.03;;;-2.20;59.66
81274;BME280;70753;47.908;11.274;2024-01-16T07:31:23;94184.13;;;-1.94;59.02
81274;BME280;70753;47.908;11.274;2024-01-16T07:33:49;94183.41;;;-1.72;59.17
81274;BME280;70753;47.908;11.274;2024-01-16T07:36:14;94180.50;;;-1.64;58.60
81274;BME280;70753;47.908;11.274;2024-01-16T07:38:40;94178.50;;;-1.38;58.38
81274;BME280;70753;47.908;11.274;2024-01-16T07:41:05;94166.16;;;-1.20;58.18
81274;BME280;70753;47.908;11.274;2024-01-16T07:43:31;94172.41;;;-1.09;57.55
81274;BME280;70753;47.908;11.274;2024-01-16T07:45:57;94162.66;;;-1.02;58.07
81274;BME280;70753;47.908;11.274;2024-01-16T07:48:24;94177.56;;;-0.80;56.62
81274;BME280;70753;47.908;11.274;2024-01-16T07:50:49;94167.41;;;-0.88;57.30
81274;BME280;70753;47.908;11.274;2024-01-16T07:53:15;94170.06;;;-0.64;56.25
81274;BME280;70753;47.908;11.274;2024-01-16T07:55:40;94176.66;;;-0.97;57.76
81274;BME280;70753;47.908;11.274;2024-01-16T07:58:06;94168.09;;;-0.92;57.30
81274;BME280;70753;47.908;11.274;2024-01-16T08:00:31;94162.84;;;-0.46;56.03
81274;BME280;70753;47.908;11.274;2024-01-16T08:02:57;94174.53;;;-0.25;55.45
81274;BME280;70753;47.908;11.274;2024-01-16T08:05:23;94176.78;;;-0.17;55.48
81274;BME280;70753;47.908;11.274;2024-01-16T08:07:49;94169.97;;;-0.18;55.14
81274;BME280;70753;47.908;11.274;2024-01-16T08:10:14;94167.81;;;-0.21;54.86
81274;BME280;70753;47.908;11.274;2024-01-16T08:12:40;94165.72;;;-0.08;54.41
81274;BME280;70753;47.908;11.274;2024-01-16T08:15:06;94164.00;;;-0.02;54.71
81274;BME280;70753;47.908;11.274;2024-01-16T08:17:31;94167.53;;;0.04;54.36
81274;BME280;70753;47.908;11.274;2024-01-16T08:19:57;94170.50;;;-0.05;54.00
81274;BME280;70753;47.908;11.274;2024-01-16T08:22:24;94167.09;;;-0.05;53.38
81274;BME280;70753;47.908;11.274;2024-01-16T08:24:49;94168.03;;;-0.11;53.86
81274;BME280;70753;47.908;11.274;2024-01-16T08:27:14;94161.34;;;0.10;53.59
81274;BME280;70753;47.908;11.274;2024-01-16T08:29:40;94165.50;;;0.22;53.87
81274;BME280;70753;47.908;11.274;2024-01-16T08:32:05;94163.81;;;0.44;53.28
81274;BME280;70753;47.908;11.274;2024-01-16T08:34:32;94163.53;;;0.57;51.88
81274;BME280;70753;47.908;11.274;2024-01-16T08:36:57;94165.31;;;0.68;53.13
81274;BME280;70753;47.908;11.274;2024-01-16T08:39:24;94160.22;;;0.78;52.05
81274;BME280;70753;47.908;11.274;2024-01-16T08:41:50;94156.25;;;0.93;50.82
81274;BME280;70753;47.908;11.274;2024-01-16T08:44:15;94157.66;;;1.17;50.14
81274;BME280;70753;47.908;11.274;2024-01-16T08:46:40;94154.31;;;1.38;49.76
81274;BME280;70753;47.908;11.274;2024-01-16T08:49:06;94151.75;;;1.43;52.73
81274;BME280;70753;47.908;11.274;2024-01-16T08:51:32;94156.88;;;1.33;52.54
81274;BME280;70753;47.908;11.274;2024-01-16T08:53:57;94153.09;;;1.07;54.67
81274;BME280;70753;47.908;11.274;2024-01-16T08:56:24;94142.06;;;0.60;54.35
81274;BME280;70753;47.908;11.274;2024-01-16T08:58:49;94148.69;;;1.13;54.40
81274;BME280;70753;47.908;11.274;2024-01-16T09:01:15;94146.38;;;1.00;54.87
81274;BME280;70753;47.908;11.274;2024-01-16T09:03:41;94136.53;;;1.07;55.16
81274;BME280;70753;47.908;11.274;2024-01-16T09:06:06;94137.47;;;0.84;53.55
81274;BME280;70753;47.908;11.274;2024-01-16T09:08:32;94135.25;;;0.93;53.43
81274;BME280;70753;47.908;11.274;2024-01-16T09:10:57;94138.44;;;1.11;52.56
81274;BME280;70753;47.908;11.274;2024-01-16T09:13:24;94137.75;;;0.38;54.65
81274;BME280;70753;47.908;11.274;2024-01-16T09:15:50;94138.59;;;0.55;54.25
81274;BME280;70753;47.908;11.274;2024-01-16T09:18:15;94144.66;;;-0.01;55.71
81274;BME280;70753;47.908;11.274;2024-01-16T09:20:41;94141.19;;;0.10;55.69
81274;BME280;70753;47.908;11.274;2024-01-16T09:23:06;94139.41;;;0.27;55.06
81274;BME280;70753;47.908;11.274;2024-01-16T09:25:31;94129.72;;;0.28;55.17
81274;BME280;70753;47.908;11.274;2024-01-16T09:27:57;94137.72;;;0.21;55.66
81274;BME280;70753;47.908;11.274;2024-01-16T09:30:24;94122.94;;;0.15;56.10
81274;BME280;70753;47.908;11.274;2024-01-16T09:32:49;94133.31;;;0.38;56.50
81274;BME280;70753;47.908;11.274;2024-01-16T09:35:15;94139.22;;;0.62;55.56
81274;BME280;70753;47.908;11.274;2024-01-16T09:37:40;94136.97;;;0.54;55.79
81274;BME280;70753;47.908;11.274;2024-01-16T09:40:07;94133.34;;;0.88;55.57
81274;BME280;70753;47.908;11.274;2024-01-16T09:42:32;94127.47;;;0.81;54.97
81274;BME280;70753;47.908;11.274;2024-01-16T09:45:00;94127.63;;;0.74;54.45
81274;BME280;70753;47.908;11.274;2024-01-16T09:47:28;94126.28;;;1.05;53.63
81274;BME280;70753;47.908;11.274;2024-01-16T09:49:56;94126.53;;;0.70;55.16
81274;BME280;70753;47.908;11.274;2024-01-16T09:52:22;94130.19;;;1.03;54.29
81274;BME280;70753;47.908;11.274;2024-01-16T09:54:47;94123.41;;;1.07;54.36
81274;BME280;70753;47.908;11.274;2024-01-16T09:57:13;94118.34;;;0.84;54.73
81274;BME280;70753;47.908;11.274;2024-01-16T09:59:40;94115.59;;;0.29;56.01
81274;BME280;70753;47.908;11.274;2024-01-16T10:02:07;94111.88;;;0.91;54.07
81274;BME280;70753;47.908;11.274;2024-01-16T10:04:34;94103.16;;;1.02;54.14
81274;BME280;70753;47.908;11.274;2024-01-16T10:07:02;94097.69;;;1.25;52.62
81274;BME280;70753;47.908;11.274;2024-01-16T10:09:27;94097.59;;;1.37;52.21
81274;BME280;70753;47.908;11.274;2024-01-16T10:11:53;94097.91;;;1.62;51.87
81274;BME280;70753;47.908;11.274;2024-01-16T10:14:19;94105.72;;;1.57;51.65
81274;BME280;70753;47.908;11.274;2024-01-16T10:16:58;94095.75;;;2.02;49.70
81274;BME280;70753;47.908;11.274;2024-01-16T10:19:23;94094.97;;;2.28;49.46
81274;BME280;70753;47.908;11.274;2024-01-16T10:21:51;94096.63;;;1.43;49.56
81274;BME280;70753;47.908;11.274;2024-01-16T10:24:16;94093.03;;;1.49;49.39
81274;BME280;70753;47.908;11.274;2024-01-16T10:26:42;94081.94;;;2.12;49.76
81274;BME280;70753;47.908;11.274;2024-01-16T10:29:07;94088.56;;;2.19;47.82
81274;BME280;70753;47.908;11.274;2024-01-16T10:31:32;94088.56;;;1.93;47.10
81274;BME280;70753;47.908;11.274;2024-01-16T10:33:58;94084.13;;;1.93;47.34
81274;BME280;70753;47.908;11.274;2024-01-16T10:36:24;94071.59;;;2.59;46.49
81274;BME280;70753;47.908;11.274;2024-01-16T10:38:51;94073.69;;;3.30;42.29
81274;BME280;70753;47.908;11.274;2024-01-16T10:41:17;94068.50;;;3.50;42.36
81274;BME280;70753;47.908;11.274;2024-01-16T10:43:43;94072.34;;;3.84;42.62
81274;BME280;70753;47.908;11.274;2024-01-16T10:46:11;94069.06;;;3.57;42.81
81274;BME280;70753;47.908;11.274;2024-01-16T10:48:36;94061.25;;;3.21;42.60
81274;BME280;70753;47.908;11.274;2024-01-16T10:51:02;94061.94;;;3.06;41.28
81274;BME280;70753;47.908;11.274;2024-01-16T10:53:32;94057.06;;;2.83;42.54
81274;BME280;70753;47.908;11.274;2024-01-16T10:56:00;94046.50;;;3.81;41.13
81274;BME280;70753;47.908;11.274;2024-01-16T10:58:26;94056.16;;;4.63;40.66
81274;BME280;70753;47.908;11.274;2024-01-16T11:00:56;94046.63;;;5.27;38.98
81274;BME280;70753;47.908;11.274;2024-01-16T11:03:25;94042.38;;;5.31;38.79
81274;BME280;70753;47.908;11.274;2024-01-16T11:05:54;94036.59;;;5.09;39.02
81274;BME280;70753;47.908;11.274;2024-01-16T11:08:22;94036.09;;;4.77;39.95
81274;BME280;70753;47.908;11.274;2024-01-16T11:10:49;94038.75;;;4.52;40.73
81274;BME280;70753;47.908;11.274;2024-01-16T11:13:18;94029.75;;;4.98;40.25
81274;BME280;70753;47.908;11.274;2024-01-16T11:15:44;94034.75;;;5.10;39.34
81274;BME280;70753;47.908;11.274;2024-01-16T11:18:14;94038.75;;;5.02;39.57
81274;BME280;70753;47.908;11.274;2024-01-16T11:20:40;94029.19;;;5.11;40.17
81274;BME280;70753;47.908;11.274;2024-01-16T11:23:06;94032.91;;;5.15;39.12
81274;BME280;70753;47.908;11.274;2024-01-16T11:25:32;94033.44;;;5.12;40.11
81274;BME280;70753;47.908;11.274;2024-01-16T11:28:08;94027.94;;;5.83;38.75
81274;BME280;70753;47.908;11.274;2024-01-16T11:30:35;94012.72;;;6.13;37.68
81274;BME280;70753;47.908;11.274;2024-01-16T11:33:00;94013.25;;;6.54;36.08
81274;BME280;70753;47.908;11.274;2024-01-16T11:35:33;94015.53;;;6.32;36.89
81274;BME280;70753;47.908;11.274;2024-01-16T11:38:13;94012.91;;;5.73;36.75
81274;BME280;70753;47.908;11.274;2024-01-16T11:40:42;94007.75;;;6.46;38.05
81274;BME280;70753;47.908;11.274;2024-01-16T11:43:35;94002.91;;;7.15;35.63
81274;BME280;70753;47.908;11.274;2024-01-16T11:46:04;93986.78;;;7.64;35.26
81274;BME280;70753;47.908;11.274;2024-01-16T11:48:29;93979.50;;;8.12;34.70
81274;BME280;70753;47.908;11.274;2024-01-16T11:50:55;93979.88;;;8.42;33.57
81274;BME280;70753;47.908;11.274;2024-01-16T11:53:34;93993.66;;;8.44;34.07
81274;BME280;70753;47.908;11.274;2024-01-16T11:59:10;93983.56;;;8.28;33.44
81274;BME280;70753;47.908;11.274;2024-01-16T12:01:45;93981.28;;;8.16;34.01
81274;BME280;70753;47.908;11.274;2024-01-16T12:04:10;93980.28;;;8.12;34.54
81274;BME280;70753;47.908;11.274;2024-01-16T12:06:36;93980.28;;;8.12;34.72
81274;BME280;70753;47.908;11.274;2024-01-16T12:09:11;93970.97;;;7.96;34.57
81274;BME280;70753;47.908;11.274;2024-01-16T12:11:37;93967.78;;;7.52;35.12
81274;BME280;70753;47.908;11.274;2024-01-16T12:14:02;93978.16;;;6.00;37.91
81274;BME280;70753;47.908;11.274;2024-01-16T12:16:28;93975.19;;;6.06;38.84
81274;BME280;70753;47.908;11.274;2024-01-16T12:19:05;93965.13;;;6.47;37.85
81274;BME280;70753;47.908;11.274;2024-01-16T12:21:32;93961.56;;;6.90;36.04
81274;BME280;70753;47.908;11.274;2024-01-16T12:23:59;93950.16;;;7.19;37.35
81274;BME280;70753;47.908;11.274;2024-01-16T12:26:24;93958.28;;;7.04;38.41
81274;BME280;70753;47.908;11.274;2024-01-16T12:28:51;93948.44;;;6.80;36.78
81274;BME280;70753;47.908;11.274;2024-01-16T12:31:17;93956.91;;;6.10;38.57
81274;BME280;70753;47.908;11.274;2024-01-16T12:33:43;93946.44;;;5.95;39.00
81274;BME280;70753;47.908;11.274;2024-01-16T12:36:10;93944.97;;;6.17;38.74
81274;BME280;70753;47.908;11.274;2024-01-16T12:38:35;93930.81;;;5.44;38.52
81274;BME280;70753;47.908;11.274;2024-01-16T12:41:01;93928.78;;;6.24;38.93
81274;BME280;70753;47.908;11.274;2024-01-16T12:43:27;93933.63;;;4.99;40.58
81274;BME280;70753;47.908;11.274;2024-01-16T12:45:54;93913.31;;;6.07;38.74
81274;BME280;70753;47.908;11.274;2024-01-16T12:48:22;93919.16;;;4.87;40.71
81274;BME280;70753;47.908;11.274;2024-01-16T12:50:48;93907.16;;;5.19;41.17